Aeroporto :
LOGIN :

Iscrizione | Disclaimer

   EN    FR    IT 

 










Sommario :    VFR   VFR Marginale   IFR   IFR Intensivo   IFR Molto Intensivo
Visibilità : 
Base nubi : 
>= 8 km
>= 3000ft
5 / 8 km
1000 / 3000 ft
1500m / 5 km
500 / 1000 ft
800 / 1500m
200 / 500 ft
< 800m
< 200 ft
Simboli :   Temporali  Nebbia  Neve Forte  Precipitazioni Forti  Vento > 20 kt
SIGMETs :   Varie  Temporali  Ghiacco  Turbolenza  Onda orograficha  Ceneri Vulcaniche






- Altitudine del aeroporto : 15 ft
- Codice IATA : BHD


EGAC - George Best Belfast City

ULTIMO METAR :
  • 031320Z AUTO 02012KT 9999 BKN042/// 15/05 Q1016

METARs OBSOLETI :
  • 031250Z AUTO 02015KT 9999 SCT045/// 14/05 Q1016
  • 031220Z AUTO 01013KT 9999 BKN044/// 15/05 Q1016
  • 031150Z AUTO 01013KT 9999 FEW031/// BKN042/// 14/06 Q1016
  • 031120Z AUTO 02013KT 9999 BKN029/// OVC044/// 14/06 Q1016
  • 031050Z AUTO 02015KT 9999 SCT031/// BKN038/// 14/05 Q1017

TAF TAF EGAC
Valido dal 03 a 09 ore il 03 a 18 ore UTC


030801Z 0309/0318 02014KT 9999 FEW020 SCT040
PROB30
TEMPO 0309/0312 02017G27KT
ATIS : +44 02890 935 124



MetMap, La meteo Aeronautica in un colpo d'occhio ! - Copyright ORBIFLY Dicembre 2007 - Disclaimer

ORBIFLY MET'MAP TEAM :

Programmazione e sviluppo : Alexandra Zaïnal
Concezione : Baudouin d'Aumeries
Aiuto per la programmazione : Marc-Olivier Méhu
Supporto tecnico e logistico : Manuel Goepfert
Aiuto per la traduzione : Arnaldo La Scala

Contatto : metmap@orbifly.com




FONTI E CREDITI :

   NOAA